createdAt,value
2018-03-17T00:00:37.313Z,-0.23
2018-03-17T00:01:37.276Z,-0.25
2018-03-17T00:02:36.991Z,-0.25
2018-03-17T00:03:37.205Z,-0.15
2018-03-17T00:04:37.182Z,-0.21
2018-03-17T00:05:37.140Z,-0.18
2018-03-17T00:06:37.107Z,-0.31
2018-03-17T00:07:37.075Z,-0.31
2018-03-17T00:08:37.047Z,-0.29
2018-03-17T00:09:37.012Z,-0.18
2018-03-17T00:10:37.209Z,-0.26
2018-03-17T00:11:36.946Z,-0.26
2018-03-17T00:12:36.665Z,-0.29
2018-03-17T00:13:36.638Z,-0.25
2018-03-17T00:14:36.846Z,-0.28
2018-03-17T00:15:37.213Z,-0.31
2018-03-17T00:16:36.783Z,-0.32
2018-03-17T00:17:36.748Z,-0.31
2018-03-17T00:18:36.717Z,-0.32
2018-03-17T00:19:36.686Z,-0.34
2018-03-17T00:20:36.403Z,-0.34
2018-03-17T00:21:36.620Z,-0.38
2018-03-17T00:22:36.587Z,-0.34
2018-03-17T00:23:36.551Z,-0.29
2018-03-17T00:24:36.517Z,-0.34
2018-03-17T00:25:36.239Z,-0.35
2018-03-17T00:26:36.456Z,-0.31
2018-03-17T00:27:36.434Z,-0.36
2018-03-17T00:28:36.393Z,-0.38
2018-03-17T00:29:36.364Z,-0.36
2018-03-17T00:30:36.367Z,-0.38
2018-03-17T00:31:36.293Z,-0.35
2018-03-17T00:32:36.257Z,-0.29
2018-03-17T00:33:35.973Z,-0.39
2018-03-17T00:34:36.195Z,-0.29
2018-03-17T00:35:36.158Z,-0.32
2018-03-17T00:36:35.878Z,-0.36
2018-03-17T00:37:36.090Z,-0.38
2018-03-17T00:38:36.071Z,-0.31
2018-03-17T00:39:36.025Z,-0.38
2018-03-17T00:40:35.997Z,-0.41
2018-03-17T00:41:35.713Z,-0.39
2018-03-17T00:42:35.945Z,-0.39
2018-03-17T00:43:35.898Z,-0.47
2018-03-17T00:44:35.865Z,-0.54
2018-03-17T00:45:35.832Z,-0.52
2018-03-17T00:46:35.805Z,-0.47
2018-03-17T00:47:35.870Z,-0.49
2018-03-17T00:48:35.484Z,-0.53
2018-03-17T00:49:35.707Z,-0.57
2018-03-17T00:50:35.670Z,-0.47
2018-03-17T00:51:35.635Z,-0.57
2018-03-17T00:52:35.604Z,-0.64
2018-03-17T00:53:35.568Z,-0.61
2018-03-17T00:54:35.529Z,-0.59
2018-03-17T00:55:35.508Z,-0.62
2018-03-17T00:56:35.475Z,-0.62
2018-03-17T00:57:35.534Z,-0.65
2018-03-17T00:58:35.402Z,-0.61
2018-03-17T00:59:35.370Z,-0.57
2018-03-17T01:00:35.335Z,-0.64
2018-03-17T01:01:35.313Z,-0.62
2018-03-17T01:02:35.272Z,-0.56
2018-03-17T01:03:35.244Z,-0.62
2018-03-17T01:04:35.210Z,-0.57
2018-03-17T01:05:35.176Z,-0.7
2018-03-17T01:06:35.142Z,-0.7
2018-03-17T01:07:34.855Z,-0.62
2018-03-17T01:08:34.827Z,-0.72
2018-03-17T01:09:35.047Z,-0.59
2018-03-17T01:10:35.010Z,-0.64
2018-03-17T01:11:34.973Z,-0.71
2018-03-17T01:12:34.941Z,-0.67
2018-03-17T01:13:34.910Z,-0.71
2018-03-17T01:14:34.952Z,-0.67
2018-03-17T01:15:34.840Z,-0.67
2018-03-17T01:16:34.808Z,-0.7
2018-03-17T01:17:34.770Z,-0.64
2018-03-17T01:18:34.738Z,-0.67
2018-03-17T01:19:34.707Z,-0.72
2018-03-17T01:20:34.675Z,-0.7
2018-03-17T01:21:34.645Z,-0.74
2018-03-17T01:22:34.611Z,-0.64
2018-03-17T01:23:34.599Z,-0.64
2018-03-17T01:24:34.549Z,-0.61
2018-03-17T01:25:34.519Z,-0.64
2018-03-17T01:26:34.474Z,-0.71
2018-03-17T01:27:34.444Z,-0.71
2018-03-17T01:28:34.409Z,-0.71
2018-03-17T01:29:34.381Z,-0.75
2018-03-17T01:30:34.356Z,-0.71
2018-03-17T01:31:34.313Z,-0.7
2018-03-17T01:32:34.035Z,-0.74
2018-03-17T01:33:34.246Z,-0.75
2018-03-17T01:34:33.962Z,-0.71
2018-03-17T01:35:34.178Z,-0.68
2018-03-17T01:36:34.148Z,-0.77
2018-03-17T01:37:34.110Z,-0.78
2018-03-17T01:38:34.077Z,-0.71
2018-03-17T01:39:34.054Z,-0.75
2018-03-17T01:40:34.011Z,-0.68
2018-03-17T01:41:33.992Z,-0.59
2018-03-17T01:42:33.944Z,-0.57
2018-03-17T01:43:33.913Z,-0.7
2018-03-17T01:44:33.635Z,-0.74
2018-03-17T01:45:33.848Z,-0.71
2018-03-17T01:46:33.839Z,-0.7
2018-03-17T01:47:33.785Z,-0.67
2018-03-17T01:48:33.746Z,-0.65
2018-03-17T01:49:33.467Z,-0.72
2018-03-17T01:50:33.700Z,-0.65
2018-03-17T01:51:33.650Z,-0.65
2018-03-17T01:52:33.617Z,-0.7
2018-03-17T01:53:33.584Z,-0.7
2018-03-17T01:54:33.550Z,-0.68
2018-03-17T01:55:33.516Z,-0.68
2018-03-17T01:56:33.487Z,-0.65
2018-03-17T01:57:33.449Z,-0.64
2018-03-17T01:58:33.419Z,-0.64
2018-03-17T01:59:33.392Z,-0.65
2018-03-17T02:00:33.344Z,-0.57
2018-03-17T02:01:33.320Z,-0.62
2018-03-17T02:02:33.281Z,-0.72
2018-03-17T02:03:32.752Z,-0.65
2018-03-17T02:04:33.220Z,-0.67
2018-03-17T02:05:33.182Z,-0.71
2018-03-17T02:06:32.906Z,-0.61
2018-03-17T02:07:33.117Z,-0.72
2018-03-17T02:08:32.839Z,-0.7
2018-03-17T02:09:33.052Z,-0.72
2018-03-17T02:10:33.026Z,-0.71
2018-03-17T02:11:32.988Z,-0.68
2018-03-17T02:12:32.949Z,-0.75
2018-03-17T02:13:32.923Z,-0.75
2018-03-17T02:14:32.636Z,-0.72
2018-03-17T02:15:32.854Z,-0.72
2018-03-17T02:16:32.824Z,-0.78
2018-03-17T02:17:32.786Z,-0.74
2018-03-17T02:18:32.754Z,-0.71
2018-03-17T02:19:32.725Z,-0.7
2018-03-17T02:20:32.701Z,-0.74
2018-03-17T02:21:32.659Z,-0.77
2018-03-17T02:22:32.624Z,-0.71
2018-03-17T02:23:32.585Z,-0.83
2018-03-17T02:24:32.560Z,-0.77
2018-03-17T02:25:32.520Z,-0.83
2018-03-17T02:26:32.236Z,-0.77
2018-03-17T02:27:32.467Z,-0.82
2018-03-17T02:28:32.425Z,-0.89
2018-03-17T02:29:32.392Z,-0.8
2018-03-17T02:30:32.373Z,-0.82
2018-03-17T02:31:32.336Z,-0.86
2018-03-17T02:32:32.294Z,-0.85
2018-03-17T02:33:32.261Z,-0.85
2018-03-17T02:34:31.977Z,-0.83
2018-03-17T02:35:32.200Z,-0.75
2018-03-17T02:36:32.163Z,-0.78
2018-03-17T02:37:32.131Z,-0.83
2018-03-17T02:38:32.098Z,-0.83
2018-03-17T02:39:32.056Z,-0.9
2018-03-17T02:40:32.031Z,-0.86
2018-03-17T02:41:31.993Z,-0.82
2018-03-17T02:42:31.965Z,-0.82
2018-03-17T02:43:31.932Z,-0.85
2018-03-17T02:44:31.905Z,-0.82
2018-03-17T02:45:31.861Z,-0.85
2018-03-17T02:46:31.823Z,-0.86
2018-03-17T02:47:31.542Z,-0.94
2018-03-17T02:48:31.812Z,-0.89
2018-03-17T02:49:31.732Z,-0.82
2018-03-17T02:50:31.699Z,-0.86
2018-03-17T02:51:31.660Z,-0.94
2018-03-17T02:52:31.725Z,-0.89
2018-03-17T02:53:31.601Z,-0.96
2018-03-17T02:54:31.569Z,-0.94
2018-03-17T02:55:31.528Z,-1.01
2018-03-17T02:56:31.498Z,-0.97
2018-03-17T02:57:31.461Z,-0.94
2018-03-17T02:58:31.431Z,-0.82
2018-03-17T02:59:31.145Z,-0.93
2018-03-17T03:00:31.357Z,-1.01
2018-03-17T03:01:31.321Z,-0.93
2018-03-17T03:02:31.291Z,-0.93
2018-03-17T03:03:31.262Z,-0.94
2018-03-17T03:04:30.975Z,-0.94
2018-03-17T03:05:31.195Z,-1.01
2018-03-17T03:06:31.161Z,-1.02
2018-03-17T03:07:31.149Z,-1.05
2018-03-17T03:08:31.097Z,-1.05
2018-03-17T03:09:31.058Z,-0.99
2018-03-17T03:10:31.019Z,-1.02
2018-03-17T03:11:30.985Z,-1.09
2018-03-17T03:12:30.959Z,-1.05
2018-03-17T03:13:30.920Z,-1.07
2018-03-17T03:14:30.643Z,-1.07
2018-03-17T03:15:30.854Z,-1.02
2018-03-17T03:16:30.823Z,-1.04
2018-03-17T03:17:30.789Z,-1.02
2018-03-17T03:18:30.751Z,-1.07
2018-03-17T03:19:30.735Z,-1.04
2018-03-17T03:20:30.685Z,-1.02
2018-03-17T03:21:30.653Z,-1.01
2018-03-17T03:22:30.624Z,-1.02
2018-03-17T03:23:30.339Z,-1.04
2018-03-17T03:24:30.304Z,-1.11
2018-03-17T03:25:30.518Z,-1.08
2018-03-17T03:26:30.485Z,-1.04
2018-03-17T03:27:30.452Z,-1.14
2018-03-17T03:28:30.418Z,-1.05
2018-03-17T03:29:30.200Z,-1.11
2018-03-17T03:30:30.361Z,-1.15
2018-03-17T03:31:30.321Z,-1.14
2018-03-17T03:32:30.282Z,-1.14
2018-03-17T03:33:30.262Z,-1.09
2018-03-17T03:34:30.218Z,-1.11
2018-03-17T03:35:30.189Z,-1.12
2018-03-17T03:36:30.146Z,-1.15
2018-03-17T03:37:30.116Z,-1.09
2018-03-17T03:38:30.088Z,-1.04
2018-03-17T03:39:30.052Z,-1.12
2018-03-17T03:40:30.020Z,-1.11
2018-03-17T03:41:29.986Z,-1.12
2018-03-17T03:42:29.949Z,-1.14
2018-03-17T03:43:29.929Z,-1.12
2018-03-17T03:44:29.637Z,-1.09
2018-03-17T03:45:29.598Z,-1.05
2018-03-17T03:46:29.819Z,-1.17
2018-03-17T03:47:29.786Z,-1.11
2018-03-17T03:48:29.752Z,-1.12
2018-03-17T03:49:29.722Z,-1.12
2018-03-17T03:50:29.688Z,-1.22
2018-03-17T03:51:29.649Z,-1.19
2018-03-17T03:52:29.614Z,-1.14
2018-03-17T03:53:29.582Z,-1.2
2018-03-17T03:54:29.547Z,-1.12
2018-03-17T03:55:29.522Z,-1.2
2018-03-17T03:56:29.481Z,-1.19
2018-03-17T03:57:29.449Z,-1.12
2018-03-17T03:58:29.168Z,-1.11
2018-03-17T03:59:29.129Z,-1.2
2018-03-17T04:00:29.351Z,-1.17
2018-03-17T04:01:29.312Z,-1.19
2018-03-17T04:02:29.281Z,-1.19
2018-03-17T04:03:29.243Z,-1.22
2018-03-17T04:04:29.214Z,-1.26
2018-03-17T04:05:29.188Z,-1.3
2018-03-17T04:06:29.147Z,-1.35
2018-03-17T04:07:29.107Z,-1.33
2018-03-17T04:08:29.075Z,-1.33
2018-03-17T04:09:28.554Z,-1.4
2018-03-17T04:10:28.764Z,-1.33
2018-03-17T04:11:28.980Z,-1.38
2018-03-17T04:12:28.949Z,-1.41
2018-03-17T04:13:28.949Z,-1.4
2018-03-17T04:14:28.876Z,-1.38
2018-03-17T04:15:28.844Z,-1.38
2018-03-17T04:16:28.808Z,-1.43
2018-03-17T04:17:28.781Z,-1.4
2018-03-17T04:18:28.742Z,-1.33
2018-03-17T04:19:28.464Z,-1.4
2018-03-17T04:20:28.434Z,-1.32
2018-03-17T04:21:28.391Z,-1.35
2018-03-17T04:22:28.614Z,-1.35
2018-03-17T04:23:28.574Z,-1.44
2018-03-17T04:24:28.292Z,-1.46
2018-03-17T04:25:28.502Z,-1.47
2018-03-17T04:26:28.473Z,-1.48
2018-03-17T04:27:28.440Z,-1.5
2018-03-17T04:28:28.403Z,-1.47
2018-03-17T04:29:28.370Z,-1.47
2018-03-17T04:30:28.336Z,-1.51
2018-03-17T04:31:28.317Z,-1.59
2018-03-17T04:32:28.275Z,-1.38
2018-03-17T04:33:27.990Z,-1.48
2018-03-17T04:34:28.204Z,-1.48
2018-03-17T04:35:28.169Z,-1.47
2018-03-17T04:36:28.134Z,-1.41
2018-03-17T04:37:28.103Z,-1.47
2018-03-17T04:38:28.067Z,-1.43
2018-03-17T04:39:27.786Z,-1.41
2018-03-17T04:40:27.999Z,-1.44
2018-03-17T04:41:27.970Z,-1.44
2018-03-17T04:42:27.933Z,-1.53
2018-03-17T04:43:27.901Z,-1.44
2018-03-17T04:44:27.620Z,-1.5
2018-03-17T04:45:27.592Z,-1.62
2018-03-17T04:46:27.797Z,-1.61
2018-03-17T04:47:27.765Z,-1.59
2018-03-17T04:48:27.752Z,-1.53
2018-03-17T04:49:27.712Z,-1.54
2018-03-17T04:50:27.662Z,-1.54
2018-03-17T04:51:27.383Z,-1.51
2018-03-17T04:52:27.601Z,-1.59
2018-03-17T04:53:27.321Z,-1.58
2018-03-17T04:54:27.287Z,-1.68
2018-03-17T04:55:27.495Z,-1.59
2018-03-17T04:56:27.213Z,-1.68
2018-03-17T04:57:27.422Z,-1.65
2018-03-17T04:58:27.392Z,-1.56
2018-03-17T04:59:27.109Z,-1.66
2018-03-17T05:00:27.323Z,-1.64
2018-03-17T05:01:27.298Z,-1.62
2018-03-17T05:02:27.256Z,-1.62
2018-03-17T05:03:27.219Z,-1.69
2018-03-17T05:04:26.937Z,-1.61
2018-03-17T05:05:27.172Z,-1.65
2018-03-17T05:06:27.178Z,-1.64
2018-03-17T05:07:27.089Z,-1.68
2018-03-17T05:08:27.057Z,-1.68
2018-03-17T05:09:27.021Z,-1.72
2018-03-17T05:10:26.996Z,-1.69
2018-03-17T05:11:26.951Z,-1.65
2018-03-17T05:12:26.920Z,-1.66
2018-03-17T05:13:26.640Z,-1.71
2018-03-17T05:14:26.848Z,-1.72
2018-03-17T05:15:26.822Z,-1.77
2018-03-17T05:16:26.782Z,-1.77
2018-03-17T05:17:26.748Z,-1.76
2018-03-17T05:18:26.720Z,-1.77
2018-03-17T05:19:26.682Z,-1.69
2018-03-17T05:20:26.646Z,-1.77
2018-03-17T05:21:26.618Z,-1.82
2018-03-17T05:22:26.584Z,-1.8
2018-03-17T05:23:26.298Z,-1.83
2018-03-17T05:24:26.512Z,-1.76
2018-03-17T05:25:26.477Z,-1.74
2018-03-17T05:26:26.447Z,-1.86
2018-03-17T05:27:26.413Z,-1.86
2018-03-17T05:28:26.376Z,-1.86
2018-03-17T05:29:26.345Z,-1.9
2018-03-17T05:30:26.305Z,-1.84
2018-03-17T05:31:26.272Z,-1.86
2018-03-17T05:32:26.238Z,-1.83
2018-03-17T05:33:26.209Z,-1.92
2018-03-17T05:34:26.175Z,-1.89
2018-03-17T05:35:26.130Z,-1.95
2018-03-17T05:36:25.850Z,-1.98
2018-03-17T05:37:26.074Z,-1.97
2018-03-17T05:38:26.030Z,-1.97
2018-03-17T05:39:25.998Z,-2.02
2018-03-17T05:40:25.964Z,-2.01
2018-03-17T05:41:25.936Z,-2.02
2018-03-17T05:42:25.902Z,-2.08
2018-03-17T05:43:25.694Z,-2.05
2018-03-17T05:44:25.825Z,-2.12
2018-03-17T05:45:25.793Z,-2.01
2018-03-17T05:46:25.510Z,-2.05
2018-03-17T05:47:25.725Z,-2.08
2018-03-17T05:48:25.443Z,-2.02
2018-03-17T05:49:25.657Z,-2.05
2018-03-17T05:50:25.630Z,-2.07
2018-03-17T05:51:25.594Z,-2
2018-03-17T05:52:25.554Z,-2.19
2018-03-17T05:53:25.526Z,-2.16
2018-03-17T05:54:25.495Z,-2.13
2018-03-17T05:55:25.450Z,-2.19
2018-03-17T05:56:25.428Z,-2.16
2018-03-17T05:57:25.129Z,-2.25
2018-03-17T05:58:25.375Z,-2.23
2018-03-17T05:59:25.317Z,-2.25
2018-03-17T06:00:25.278Z,-2.21
2018-03-17T06:01:25.255Z,-2.21
2018-03-17T06:02:25.221Z,-2.21
2018-03-17T06:03:25.184Z,-2.34
2018-03-17T06:04:25.269Z,-2.22
2018-03-17T06:05:25.109Z,-2.25
2018-03-17T06:06:25.073Z,-2.22
2018-03-17T06:07:25.056Z,-2.32
2018-03-17T06:08:25.011Z,-2.28
2018-03-17T06:09:24.972Z,-2.26
2018-03-17T06:10:24.939Z,-2.35
2018-03-17T06:11:24.905Z,-2.38
2018-03-17T06:12:24.865Z,-2.35
2018-03-17T06:13:24.832Z,-2.4
2018-03-17T06:14:24.801Z,-2.32
2018-03-17T06:15:24.761Z,-2.32
2018-03-17T06:16:24.483Z,-2.4
2018-03-17T06:17:24.449Z,-2.35
2018-03-17T06:18:24.666Z,-2.34
2018-03-17T06:19:24.632Z,-2.37
2018-03-17T06:20:24.595Z,-2.34
2018-03-17T06:21:24.566Z,-2.34
2018-03-17T06:22:24.524Z,-2.32
2018-03-17T06:23:24.489Z,-2.44
2018-03-17T06:24:24.456Z,-2.42
2018-03-17T06:25:24.494Z,-2.41
2018-03-17T06:26:24.386Z,-2.41
2018-03-17T06:27:24.355Z,-2.32
2018-03-17T06:28:24.329Z,-2.32
2018-03-17T06:29:24.032Z,-2.41
2018-03-17T06:30:24.254Z,-2.34
2018-03-17T06:31:24.218Z,-2.42
2018-03-17T06:32:24.231Z,-2.37
2018-03-17T06:33:24.142Z,-2.41
2018-03-17T06:34:23.859Z,-2.38
2018-03-17T06:35:24.078Z,-2.44
2018-03-17T06:36:24.047Z,-2.48
2018-03-17T06:37:24.005Z,-2.42
2018-03-17T06:38:23.979Z,-2.35
2018-03-17T06:39:23.938Z,-2.4
2018-03-17T06:40:23.660Z,-2.42
2018-03-17T06:41:23.869Z,-2.37
2018-03-17T06:42:23.838Z,-2.41
2018-03-17T06:43:23.674Z,-2.44
2018-03-17T06:44:23.278Z,-2.41
2018-03-17T06:45:23.504Z,-2.41
2018-03-17T06:46:23.456Z,-2.38
2018-03-17T06:47:23.427Z,-2.44
2018-03-17T06:48:23.139Z,-2.47
2018-03-17T06:49:23.612Z,-2.5
2018-03-17T06:50:24.095Z,-2.47
2018-03-17T06:51:23.969Z,-2.5
2018-03-17T06:52:23.505Z,-2.47
2018-03-17T06:53:23.682Z,-2.53
2018-03-17T06:54:24.602Z,-2.47
2018-03-17T06:55:23.664Z,-2.52
2018-03-17T06:56:23.637Z,-2.47
2018-03-17T06:57:23.967Z,-2.55
2018-03-17T06:58:23.800Z,-2.53
2018-03-17T06:59:24.063Z,-2.53
2018-03-17T07:00:25.383Z,-2.53
2018-03-17T07:01:24.717Z,-2.5
2018-03-17T07:02:23.793Z,-2.55
2018-03-17T07:03:23.718Z,-2.53
2018-03-17T07:04:24.002Z,-2.44
2018-03-17T07:05:24.530Z,-2.45
2018-03-17T07:06:25.126Z,-2.52
2018-03-17T07:07:25.586Z,-2.47
2018-03-17T07:08:24.725Z,-2.5
2018-03-17T07:09:24.763Z,-2.56
2018-03-17T07:10:24.558Z,-2.56
2018-03-17T07:11:24.895Z,-2.56
2018-03-17T07:12:24.543Z,-2.44
2018-03-17T07:13:23.250Z,-2.58
2018-03-17T07:14:24.167Z,-2.48
2018-03-17T07:15:24.595Z,-2.56
2018-03-17T07:16:24.390Z,-2.59
2018-03-17T07:17:24.064Z,-2.52
2018-03-17T07:18:23.428Z,-2.59
2018-03-17T07:19:23.636Z,-2.56
2018-03-17T07:20:24.692Z,-2.52
2018-03-17T07:21:22.747Z,-2.53
2018-03-17T07:22:22.925Z,-2.59
2018-03-17T07:23:22.929Z,-2.73
2018-03-17T07:24:24.124Z,-2.63
2018-03-17T07:25:24.334Z,-2.52
2018-03-17T07:26:23.261Z,-2.6
2018-03-17T07:27:24.065Z,-2.69
2018-03-17T07:28:24.388Z,-2.59
2018-03-17T07:29:23.236Z,-2.58
2018-03-17T07:30:22.539Z,-2.58
2018-03-17T07:31:22.930Z,-2.53
2018-03-17T07:32:24.216Z,-2.59
2018-03-17T07:33:23.988Z,-2.59
2018-03-17T07:34:23.918Z,-2.52
2018-03-17T07:35:22.785Z,-2.59
2018-03-17T07:36:22.876Z,-2.56
2018-03-17T07:37:23.002Z,-2.53
2018-03-17T07:38:24.121Z,-2.53
2018-03-17T07:39:22.546Z,-2.45
2018-03-17T07:40:23.285Z,-2.42
2018-03-17T07:41:22.496Z,-2.53
2018-03-17T07:42:22.212Z,-2.53
2018-03-17T07:43:22.100Z,-2.59
2018-03-17T07:44:22.396Z,-2.56
2018-03-17T07:45:22.999Z,-2.53
2018-03-17T07:46:23.450Z,-2.55
2018-03-17T07:47:23.514Z,-2.52
2018-03-17T07:48:23.409Z,-2.55
2018-03-17T07:49:23.063Z,-2.66
2018-03-17T07:50:23.580Z,-2.63
2018-03-17T07:51:22.687Z,-2.66
2018-03-17T07:52:22.568Z,-2.58
2018-03-17T07:53:22.762Z,-2.63
2018-03-17T07:54:23.111Z,-2.65
2018-03-17T07:55:22.517Z,-2.56
2018-03-17T07:56:22.438Z,-2.65
2018-03-17T07:57:22.652Z,-2.6
2018-03-17T07:58:22.284Z,-2.7
2018-03-17T07:59:23.080Z,-2.66
2018-03-17T08:00:23.115Z,-2.77
2018-03-17T08:01:22.751Z,-2.8
2018-03-17T08:02:21.787Z,-2.83
2018-03-17T08:03:23.225Z,-2.8
2018-03-17T08:04:21.441Z,-2.69
2018-03-17T08:05:22.477Z,-2.7
2018-03-17T08:06:21.474Z,-2.66
2018-03-17T08:07:22.903Z,-2.71
2018-03-17T08:08:21.981Z,-2.62
2018-03-17T08:09:22.152Z,-2.77
2018-03-17T08:10:22.493Z,-2.77
2018-03-17T08:11:21.468Z,-2.71
2018-03-17T08:12:22.142Z,-2.74
2018-03-17T08:13:22.017Z,-2.65
2018-03-17T08:14:21.992Z,-2.74
2018-03-17T08:15:22.469Z,-2.78
2018-03-17T08:16:22.893Z,-2.76
2018-03-17T08:17:22.196Z,-2.7
2018-03-17T08:18:21.204Z,-2.66
2018-03-17T08:19:21.080Z,-2.62
2018-03-17T08:20:20.892Z,-2.73
2018-03-17T08:21:21.527Z,-2.7
2018-03-17T08:22:21.895Z,-2.7
2018-03-17T08:23:21.830Z,-2.77
2018-03-17T08:24:22.385Z,-2.71
2018-03-17T08:25:21.199Z,-2.78
2018-03-17T08:26:22.147Z,-2.8
2018-03-17T08:27:21.651Z,-2.8
2018-03-17T08:28:21.309Z,-2.76
2018-03-17T08:29:21.028Z,-2.7
2018-03-17T08:30:21.498Z,-2.76
2018-03-17T08:31:21.093Z,-2.73
2018-03-17T08:32:20.842Z,-2.76
2018-03-17T08:33:20.495Z,-2.78
2018-03-17T08:34:20.700Z,-2.8
2018-03-17T08:35:21.166Z,-2.7
2018-03-17T08:36:20.603Z,-2.74
2018-03-17T08:37:21.398Z,-2.78
2018-03-17T08:38:21.205Z,-2.76
2018-03-17T08:39:20.282Z,-2.74
2018-03-17T08:40:20.048Z,-2.77
2018-03-17T08:41:20.493Z,-2.77
2018-03-17T08:42:21.322Z,-2.7
2018-03-17T08:43:20.471Z,-2.77
2018-03-17T08:44:20.749Z,-2.76
2018-03-17T08:45:20.272Z,-2.63
2018-03-17T08:46:20.140Z,-2.63
2018-03-17T08:47:20.464Z,-2.74
2018-03-17T08:48:20.599Z,-2.6
2018-03-17T08:49:20.078Z,-2.66
2018-03-17T08:50:19.740Z,-2.78
2018-03-17T08:51:19.879Z,-2.77
2018-03-17T08:52:19.751Z,-2.77
2018-03-17T08:53:20.437Z,-2.71
2018-03-17T08:54:19.754Z,-2.71
2018-03-17T08:55:19.332Z,-2.71
2018-03-17T08:56:19.508Z,-2.6
2018-03-17T08:57:19.293Z,-2.65
2018-03-17T08:58:19.614Z,-2.58
2018-03-17T08:59:19.965Z,-2.55
2018-03-17T09:00:20.201Z,-2.56
2018-03-17T09:01:21.262Z,-2.56
2018-03-17T09:02:19.888Z,-2.62
2018-03-17T09:03:20.294Z,-2.55
2018-03-17T09:04:20.110Z,-2.58
2018-03-17T09:05:20.134Z,-2.56
2018-03-17T09:06:20.396Z,-2.58
2018-03-17T09:07:20.195Z,-2.56
2018-03-17T09:08:19.900Z,-2.5
2018-03-17T09:09:19.626Z,-2.47
2018-03-17T09:10:20.531Z,-2.48
2018-03-17T09:11:19.457Z,-2.55
2018-03-17T09:12:19.223Z,-2.56
2018-03-17T09:13:20.150Z,-2.59
2018-03-17T09:14:20.550Z,-2.5
2018-03-17T09:15:19.649Z,-2.53
2018-03-17T09:16:20.894Z,-2.44
2018-03-17T09:17:19.399Z,-2.45
2018-03-17T09:18:19.922Z,-2.47
2018-03-17T09:19:19.923Z,-2.48
2018-03-17T09:20:19.624Z,-2.45
2018-03-17T09:21:19.631Z,-2.55
2018-03-17T09:22:20.090Z,-2.53
2018-03-17T09:23:19.261Z,-2.5
2018-03-17T09:24:18.701Z,-2.47
2018-03-17T09:25:20.429Z,-2.45
2018-03-17T09:26:20.637Z,-2.48
2018-03-17T09:27:19.597Z,-2.5
2018-03-17T09:28:19.886Z,-2.52
2018-03-17T09:29:19.990Z,-2.35
2018-03-17T09:30:18.162Z,-2.41
2018-03-17T09:31:18.727Z,-2.41
2018-03-17T09:32:18.194Z,-2.5
2018-03-17T09:33:19.190Z,-2.47
2018-03-17T09:34:19.349Z,-2.47
2018-03-17T09:35:18.683Z,-2.55
2018-03-17T09:36:18.832Z,-2.44
2018-03-17T09:37:18.834Z,-2.52
2018-03-17T09:38:18.192Z,-2.52
2018-03-17T09:39:18.601Z,-2.44
2018-03-17T09:40:18.579Z,-2.47
2018-03-17T09:41:18.354Z,-2.53
2018-03-17T09:42:18.476Z,-2.48
2018-03-17T09:43:18.398Z,-2.47
2018-03-17T09:44:18.623Z,-2.47
2018-03-17T09:45:18.596Z,-2.5
2018-03-17T09:46:18.039Z,-2.5
2018-03-17T09:47:18.137Z,-2.47
2018-03-17T09:48:18.581Z,-2.52
2018-03-17T09:49:17.976Z,-2.53
2018-03-17T09:50:17.451Z,-2.53
2018-03-17T09:51:17.656Z,-2.38
2018-03-17T09:52:18.209Z,-2.34
2018-03-17T09:53:17.796Z,-2.32
2018-03-17T09:54:17.987Z,-2.22
2018-03-17T09:55:18.483Z,-2.22
2018-03-17T09:56:18.156Z,-2.21
2018-03-17T09:57:18.002Z,-2.15
2018-03-17T09:58:17.436Z,-2.1
2018-03-17T09:59:18.143Z,-2.02
2018-03-17T10:00:17.287Z,-2.05
2018-03-17T10:01:17.325Z,-2.08
2018-03-17T10:02:17.405Z,-2.13
2018-03-17T10:03:17.603Z,-2.04
2018-03-17T10:04:17.538Z,-2.08
2018-03-17T10:05:17.115Z,-2.05
2018-03-17T10:06:18.134Z,-2.1
2018-03-17T10:07:17.904Z,-2.19
2018-03-17T10:08:17.262Z,-2.16
2018-03-17T10:09:17.419Z,-2.19
2018-03-17T10:10:17.552Z,-2.21
2018-03-17T10:11:17.735Z,-2.07
2018-03-17T10:12:17.329Z,-1.95
2018-03-17T10:13:16.988Z,-1.89
2018-03-17T10:14:17.845Z,-1.89
2018-03-17T10:15:16.527Z,-1.87
2018-03-17T10:16:17.337Z,-1.89
2018-03-17T10:17:17.097Z,-1.94
2018-03-17T10:18:17.232Z,-1.95
2018-03-17T10:19:17.328Z,-2.07
2018-03-17T10:20:17.063Z,-2.1
2018-03-17T10:21:16.868Z,-2.12
2018-03-17T10:22:17.261Z,-2.07
2018-03-17T10:23:16.576Z,-2.08
2018-03-17T10:24:16.450Z,-2.05
2018-03-17T10:25:17.321Z,-2.1
2018-03-17T10:26:16.738Z,-2.18
2018-03-17T10:27:16.856Z,-2.15
2018-03-17T10:28:17.257Z,-2.26
2018-03-17T10:29:16.648Z,-2.23
2018-03-17T10:30:17.331Z,-2.26
2018-03-17T10:31:18.154Z,-2.26
2018-03-17T10:32:16.494Z,-2.28
2018-03-17T10:33:16.377Z,-2.25
2018-03-17T10:34:17.333Z,-2.25
2018-03-17T10:35:16.706Z,-2.32
2018-03-17T10:36:16.247Z,-2.26
2018-03-17T10:37:17.043Z,-2.25
2018-03-17T10:38:16.212Z,-2.26
2018-03-17T10:39:16.333Z,-2.25
2018-03-17T10:40:16.541Z,-2.18
2018-03-17T10:41:16.398Z,-2.22
2018-03-17T10:42:16.219Z,-2.15
2018-03-17T10:43:15.968Z,-2.12
2018-03-17T10:44:16.512Z,-2.07
2018-03-17T10:45:16.224Z,-2.07
2018-03-17T10:46:15.843Z,-2.02
2018-03-17T10:47:15.744Z,-2.01
2018-03-17T10:48:15.639Z,-2.16
2018-03-17T10:49:15.938Z,-2.19
2018-03-17T10:50:15.628Z,-2.28
2018-03-17T10:51:15.818Z,-2.28
2018-03-17T10:52:15.819Z,-2.35
2018-03-17T10:53:15.974Z,-2.35
2018-03-17T10:54:15.378Z,-2.35
2018-03-17T10:55:15.325Z,-2.38
2018-03-17T10:56:15.294Z,-2.23
2018-03-17T10:57:15.262Z,-2.25
2018-03-17T10:58:15.238Z,-2.34
2018-03-17T10:59:14.948Z,-2.23
2018-03-17T11:00:14.979Z,-2.23
2018-03-17T11:01:15.133Z,-2.21
2018-03-17T11:02:15.099Z,-2.22
2018-03-17T11:03:15.063Z,-2.19
2018-03-17T11:04:15.038Z,-2.19
2018-03-17T11:05:14.752Z,-2.21
2018-03-17T11:06:15.104Z,-2.25
2018-03-17T11:07:14.959Z,-2.21
2018-03-17T11:08:14.649Z,-2.19
2018-03-17T11:09:14.618Z,-2.15
2018-03-17T11:10:14.353Z,-2.21
2018-03-17T11:11:14.801Z,-2.19
2018-03-17T11:12:14.778Z,-2.22
2018-03-17T11:13:14.732Z,-2.19
2018-03-17T11:14:14.705Z,-2.21
2018-03-17T11:15:14.670Z,-2.16
2018-03-17T11:16:14.641Z,-2.22
2018-03-17T11:17:14.606Z,-2.16
2018-03-17T11:18:14.569Z,-2.08
2018-03-17T11:19:14.042Z,-2.18
2018-03-17T11:20:14.510Z,-2.08
2018-03-17T11:21:14.476Z,-2.13
2018-03-17T11:22:14.468Z,-2.02
2018-03-17T11:23:14.157Z,-2.13
2018-03-17T11:24:14.126Z,-2.18
2018-03-17T11:25:14.090Z,-2.21
2018-03-17T11:26:14.311Z,-2.19
2018-03-17T11:27:14.033Z,-2.22
2018-03-17T11:28:13.997Z,-2.19
2018-03-17T11:29:13.959Z,-2.16
2018-03-17T11:30:13.929Z,-2.19
2018-03-17T11:31:14.146Z,-2.26
2018-03-17T11:32:14.116Z,-2.19
2018-03-17T11:33:14.086Z,-2.15
2018-03-17T11:34:13.799Z,-2.08
2018-03-17T11:35:14.013Z,-2.16
2018-03-17T11:36:13.734Z,-2.12
2018-03-17T11:37:13.948Z,-2.16
2018-03-17T11:38:13.917Z,-2.23
2018-03-17T11:39:13.882Z,-2.3
2018-03-17T11:40:13.848Z,-2.35
2018-03-17T11:41:13.822Z,-2.32
2018-03-17T11:42:13.787Z,-2.28
2018-03-17T11:43:14.035Z,-2.19
2018-03-17T11:44:13.466Z,-2.22
2018-03-17T11:45:13.694Z,-2.22
2018-03-17T11:46:13.711Z,-2.23
2018-03-17T11:47:13.618Z,-2.22
2018-03-17T11:48:13.587Z,-2.25
2018-03-17T11:49:13.552Z,-2.38
2018-03-17T11:50:13.520Z,-2.37
2018-03-17T11:51:13.497Z,-2.35
2018-03-17T11:52:13.203Z,-2.3
2018-03-17T11:53:13.420Z,-2.38
2018-03-17T11:54:13.389Z,-2.32
2018-03-17T11:55:13.355Z,-2.44
2018-03-17T11:56:13.326Z,-2.38
2018-03-17T11:57:13.298Z,-2.37
2018-03-17T11:58:13.257Z,-2.37
2018-03-17T11:59:13.226Z,-2.32
2018-03-17T12:00:13.196Z,-2.35
2018-03-17T12:01:12.906Z,-2.3
2018-03-17T12:02:13.127Z,-2.35
2018-03-17T12:03:13.100Z,-2.35
2018-03-17T12:04:13.065Z,-2.35
2018-03-17T12:05:12.776Z,-2.35
2018-03-17T12:06:12.991Z,-2.21
2018-03-17T12:07:12.958Z,-2.25
2018-03-17T12:08:12.675Z,-2.19
2018-03-17T12:09:12.893Z,-2.21
2018-03-17T12:10:12.942Z,-2.22
2018-03-17T12:11:12.590Z,-2.21
2018-03-17T12:12:12.795Z,-2.26
2018-03-17T12:13:12.760Z,-2.28
2018-03-17T12:14:12.728Z,-2.32
2018-03-17T12:15:12.694Z,-2.37
2018-03-17T12:16:12.662Z,-2.37
2018-03-17T12:17:12.634Z,-2.38
2018-03-17T12:18:12.596Z,-2.35
2018-03-17T12:19:12.313Z,-2.35
2018-03-17T12:20:12.274Z,-2.41
2018-03-17T12:21:12.501Z,-2.3
2018-03-17T12:22:12.482Z,-2.34
2018-03-17T12:23:12.183Z,-2.41
2018-03-17T12:24:12.146Z,-2.4
2018-03-17T12:25:12.376Z,-2.4
2018-03-17T12:26:12.333Z,-2.35
2018-03-17T12:27:12.079Z,-2.32
2018-03-17T12:28:12.262Z,-2.35
2018-03-17T12:29:12.234Z,-2.37
2018-03-17T12:30:12.195Z,-2.4
2018-03-17T12:31:12.164Z,-2.28
2018-03-17T12:32:12.128Z,-2.25
2018-03-17T12:33:12.101Z,-2.26
2018-03-17T12:34:12.068Z,-2.26
2018-03-17T12:35:12.026Z,-2.38
2018-03-17T12:36:11.995Z,-2.32
2018-03-17T12:37:11.737Z,-2.42
2018-03-17T12:38:11.932Z,-2.37
2018-03-17T12:39:11.892Z,-2.37
2018-03-17T12:40:11.617Z,-2.34
2018-03-17T12:41:11.904Z,-2.38
2018-03-17T12:42:11.586Z,-2.42
2018-03-17T12:43:11.514Z,-2.4
2018-03-17T12:44:11.731Z,-2.38
2018-03-17T12:45:11.701Z,-2.4
2018-03-17T12:46:11.659Z,-2.28
2018-03-17T12:47:11.648Z,-2.25
2018-03-17T12:48:11.599Z,-2.26
2018-03-17T12:49:11.315Z,-2.22
2018-03-17T12:50:11.531Z,-2.19
2018-03-17T12:51:11.500Z,-2.21
2018-03-17T12:52:11.464Z,-2.22
2018-03-17T12:53:11.435Z,-2.28
2018-03-17T12:54:12.329Z,-2.13
2018-03-17T12:55:11.112Z,-2.23